createdAt,value
2023-03-04T00:02:28.902Z,100199.88
2023-03-04T00:05:58.306Z,100186.50
2023-03-04T00:09:25.329Z,100176.83
2023-03-04T00:12:53.405Z,100166.84
2023-03-04T00:16:35.461Z,100151.04
2023-03-04T00:20:05.438Z,100134.54
2023-03-04T00:23:34.033Z,100137.88
2023-03-04T00:27:01.677Z,100120.45
2023-03-04T00:30:30.105Z,100113.64
2023-03-04T00:34:00.493Z,100112.08
2023-03-04T00:37:30.926Z,100104.07
2023-03-04T00:40:58.231Z,100105.10
2023-03-04T00:44:26.632Z,100104.08
2023-03-04T00:47:55.702Z,100099.80
2023-03-04T00:51:24.544Z,100107.15
2023-03-04T00:54:51.155Z,100106.45
2023-03-04T00:58:19.199Z,100114.45
2023-03-04T01:01:46.161Z,100115.41
2023-03-04T01:05:16.518Z,100117.09
2023-03-04T01:08:43.508Z,100110.56
2023-03-04T01:12:10.850Z,100114.27
2023-03-04T01:15:39.257Z,100106.82
2023-03-04T01:19:06.657Z,100106.23
2023-03-04T01:22:33.716Z,100104.55
2023-03-04T01:26:07.247Z,100106.77
2023-03-04T01:29:36.875Z,100103.02
2023-03-04T01:33:03.986Z,100094.98
2023-03-04T01:36:35.030Z,100092.45
2023-03-04T01:40:03.823Z,100085.52
2023-03-04T01:43:38.044Z,100085.12
2023-03-04T01:47:07.673Z,100079.23
2023-03-04T01:50:38.667Z,100075.27
2023-03-04T01:54:22.675Z,100074.58
2023-03-04T01:57:56.334Z,100074.20
2023-03-04T02:01:24.195Z,100071.11
2023-03-04T02:04:51.483Z,100065.81
2023-03-04T02:08:21.693Z,100061.19
2023-03-04T02:11:50.668Z,100055.02
2023-03-04T02:15:22.508Z,100058.06
2023-03-04T02:18:52.517Z,100049.02
2023-03-04T02:22:20.034Z,100045.66
2023-03-04T02:25:51.866Z,100041.08
2023-03-04T02:29:20.316Z,100044.05
2023-03-04T02:32:48.441Z,100042.89
2023-03-04T02:36:15.690Z,100037.04
2023-03-04T02:39:46.698Z,100036.71
2023-03-04T02:43:15.461Z,100035.73
2023-03-04T02:46:42.429Z,100033.90
2023-03-04T02:50:11.346Z,100025.28
2023-03-04T02:53:38.438Z,100029.27
2023-03-04T02:57:07.237Z,100027.59
2023-03-04T03:00:40.969Z,100026.23
2023-03-04T03:04:08.525Z,100024.56
2023-03-04T03:07:36.138Z,100017.05
2023-03-04T03:11:03.183Z,100014.02
2023-03-04T03:14:31.318Z,100013.07
2023-03-04T03:17:58.664Z,100010.38
2023-03-04T03:21:25.940Z,100009.52
2023-03-04T03:24:53.002Z,100005.73
2023-03-04T03:28:20.131Z,100006.14
2023-03-04T03:31:47.390Z,100007.98
2023-03-04T03:35:14.563Z,100004.42
2023-03-04T03:38:41.552Z,100008.23
2023-03-04T03:42:09.118Z,100006.91
2023-03-04T03:45:41.375Z,100002.89
2023-03-04T03:49:08.293Z,100005.58
2023-03-04T03:52:35.106Z,100000.66
2023-03-04T03:56:01.489Z,99992.05
2023-03-04T03:59:28.494Z,99997.57
2023-03-04T04:02:59.166Z,100001.55
2023-03-04T04:06:26.371Z,99995.29
2023-03-04T04:09:53.314Z,99994.56
2023-03-04T04:13:20.171Z,99997.45
2023-03-04T04:16:48.109Z,99999.39
2023-03-04T04:20:16.282Z,99998.41
2023-03-04T04:23:43.441Z,99987.96
2023-03-04T04:27:10.704Z,99987.52
2023-03-04T04:30:39.097Z,99987.02
2023-03-04T04:34:08.053Z,99984.46
2023-03-04T04:37:35.720Z,99978.45
2023-03-04T04:41:03.276Z,99963.34
2023-03-04T04:44:32.509Z,99962.61
2023-03-04T04:47:59.413Z,99956.73
2023-03-04T04:51:26.162Z,99955.44
2023-03-04T04:54:52.771Z,99957.19
2023-03-04T04:58:19.457Z,99954.70
2023-03-04T05:01:46.127Z,99956.39
2023-03-04T05:05:14.178Z,99952.59
2023-03-04T05:08:43.290Z,99952.29
2023-03-04T05:12:09.956Z,99947.07
2023-03-04T05:15:39.755Z,99942.20
2023-03-04T05:19:12.668Z,99937.23
2023-03-04T05:22:39.650Z,99941.53
2023-03-04T05:26:07.990Z,99938.68
2023-03-04T05:29:35.309Z,99937.42
2023-03-04T05:33:02.709Z,99945.35
2023-03-04T05:36:29.442Z,99942.29
2023-03-04T05:39:56.221Z,99940.93
2023-03-04T05:43:24.536Z,99946.21
2023-03-04T05:46:51.306Z,99946.35
2023-03-04T05:50:20.192Z,99948.30
2023-03-04T05:53:47.522Z,99950.41
2023-03-04T05:57:14.137Z,99946.45
2023-03-04T06:00:41.180Z,99949.93
2023-03-04T06:04:08.121Z,99946.71
2023-03-04T06:07:34.765Z,99951.06
2023-03-04T06:11:01.502Z,99946.86
2023-03-04T06:14:28.422Z,99943.02
2023-03-04T06:17:55.554Z,99935.73
2023-03-04T06:21:22.259Z,99937.42
2023-03-04T06:24:54.277Z,99940.33
2023-03-04T06:28:21.555Z,99930.35
2023-03-04T06:31:49.036Z,99935.16
2023-03-04T06:35:17.303Z,99935.92
2023-03-04T06:38:44.230Z,99937.91
2023-03-04T06:42:10.999Z,99934.88
2023-03-04T06:45:40.244Z,99935.30
2023-03-04T06:49:08.486Z,99940.77
2023-03-04T06:52:35.564Z,99940.23
2023-03-04T06:56:03.038Z,99941.58
2023-03-04T06:59:29.758Z,99939.66
2023-03-04T07:02:56.369Z,99936.80
2023-03-04T07:06:27.502Z,99937.19
2023-03-04T07:09:54.341Z,99935.91
2023-03-04T07:13:21.248Z,99936.14
2023-03-04T07:16:49.084Z,99936.45
2023-03-04T07:20:17.304Z,99937.36
2023-03-04T07:23:45.988Z,99932.96
2023-03-04T07:27:12.996Z,99933.38
2023-03-04T07:30:39.840Z,99931.27
2023-03-04T07:34:09.019Z,99927.67
2023-03-04T07:37:36.006Z,99921.89
2023-03-04T07:41:02.979Z,99919.23
2023-03-04T07:44:29.750Z,99921.05
2023-03-04T07:47:56.924Z,99917.85
2023-03-04T07:51:28.126Z,99918.05
2023-03-04T07:54:54.919Z,99913.08
2023-03-04T07:58:22.013Z,99908.54
2023-03-04T08:01:49.511Z,99909.02
2023-03-04T08:05:16.969Z,99908.69
2023-03-04T08:08:44.323Z,99902.48
2023-03-04T08:12:11.346Z,99899.83
2023-03-04T08:15:42.506Z,99898.57
2023-03-04T08:19:10.033Z,99902.20
2023-03-04T08:22:36.418Z,99895.19
2023-03-04T08:26:07.834Z,99896.50
2023-03-04T08:29:35.254Z,99893.48
2023-03-04T08:33:02.809Z,99896.84
2023-03-04T08:36:30.389Z,99890.21
2023-03-04T08:39:57.892Z,99889.16
2023-03-04T08:43:25.802Z,99889.20
2023-03-04T08:46:52.889Z,99884.61
2023-03-04T08:50:22.230Z,99886.66
2023-03-04T08:53:49.742Z,99891.36
2023-03-04T08:57:17.591Z,99895.02
2023-03-04T09:00:50.271Z,99896.42
2023-03-04T09:04:17.517Z,99903.75
2023-03-04T09:07:44.582Z,99906.41
2023-03-04T09:11:13.425Z,99917.35
2023-03-04T09:14:40.251Z,99914.40
2023-03-04T09:18:08.506Z,99909.53
2023-03-04T09:21:35.636Z,99906.36
2023-03-04T09:25:03.052Z,99907.81
2023-03-04T09:28:30.699Z,99903.37
2023-03-04T09:31:58.151Z,99903.84
2023-03-04T09:35:25.095Z,99903.17
2023-03-04T09:38:52.271Z,99901.73
2023-03-04T09:42:27.472Z,99898.25
2023-03-04T09:45:58.505Z,99893.69
2023-03-04T09:49:26.954Z,99897.39
2023-03-04T09:53:08.043Z,99897.08
2023-03-04T09:56:38.661Z,99894.45
2023-03-04T10:00:20.240Z,99890.18
2023-03-04T10:03:53.802Z,99895.66
2023-03-04T10:07:25.426Z,99893.32
2023-03-04T10:10:53.617Z,99895.05
2023-03-04T10:14:35.556Z,99894.21
2023-03-04T10:18:09.678Z,99894.77
2023-03-04T10:21:41.824Z,99897.14
2023-03-04T10:25:24.747Z,99891.06
2023-03-04T10:28:52.534Z,99890.05
2023-03-04T10:32:21.253Z,99892.79
2023-03-04T10:35:55.139Z,99895.54
2023-03-04T10:39:27.808Z,99897.48
2023-03-04T10:42:57.833Z,99895.88
2023-03-04T10:46:25.943Z,99900.11
2023-03-04T10:49:58.105Z,99897.51
2023-03-04T10:53:40.248Z,99902.23
2023-03-04T10:57:15.671Z,99906.58
2023-03-04T11:00:42.872Z,99908.83
2023-03-04T11:04:19.935Z,99907.05
2023-03-04T11:07:56.662Z,99911.30
2023-03-04T11:11:34.868Z,99914.49
2023-03-04T11:15:01.541Z,99918.48
2023-03-04T11:18:45.518Z,99918.46
2023-03-04T11:22:19.598Z,99923.80
2023-03-04T11:25:50.284Z,99927.52
2023-03-04T11:29:21.902Z,99929.67
2023-03-04T11:32:51.991Z,99920.27
2023-03-04T11:36:35.080Z,99925.95
2023-03-04T11:40:11.370Z,99922.66
2023-03-04T11:43:44.397Z,99929.14
2023-03-04T11:47:24.885Z,99930.95
2023-03-04T11:50:56.214Z,99929.93
2023-03-04T11:54:34.454Z,99932.33
2023-03-04T11:58:15.092Z,99933.19
2023-03-04T12:01:52.764Z,99937.27
2023-03-04T12:05:39.380Z,99933.63
2023-03-04T12:09:23.930Z,99930.42
2023-03-04T12:13:19.281Z,99932.95
2023-03-04T12:17:17.472Z,99932.79
2023-03-04T12:21:17.133Z,99940.56
2023-03-04T12:25:11.802Z,99940.71
2023-03-04T12:29:00.178Z,99940.86
2023-03-04T12:32:41.795Z,99951.51
2023-03-04T12:36:21.381Z,99949.83
2023-03-04T12:40:08.320Z,99952.88
2023-03-04T12:43:50.394Z,99960.86
2023-03-04T12:47:30.599Z,99964.07
2023-03-04T12:51:11.260Z,99967.00
2023-03-04T12:54:42.718Z,99965.03
2023-03-04T12:58:19.932Z,99968.39
2023-03-04T13:01:57.305Z,99964.71
2023-03-04T13:05:57.869Z,99966.17
2023-03-04T13:09:31.674Z,99967.71
2023-03-04T13:13:01.593Z,99966.27
2023-03-04T13:16:36.529Z,99965.45
2023-03-04T13:20:20.091Z,99967.79
2023-03-04T13:23:50.096Z,99965.45
2023-03-04T13:27:50.363Z,99962.11
2023-03-04T13:31:29.237Z,99961.35
2023-03-04T13:34:58.217Z,99967.21
2023-03-04T13:38:35.189Z,99965.34
2023-03-04T13:42:02.891Z,99963.39
2023-03-04T13:45:39.475Z,99971.98
2023-03-04T13:49:09.119Z,99960.14
2023-03-04T13:52:44.716Z,99955.67
2023-03-04T13:56:32.407Z,99958.29
2023-03-04T14:00:00.415Z,99959.86
2023-03-04T14:03:32.189Z,99955.84
2023-03-04T14:07:01.369Z,99955.34
2023-03-04T14:10:28.496Z,99962.69
2023-03-04T14:13:57.757Z,99959.76
2023-03-04T14:17:28.639Z,99960.72
2023-03-04T14:20:59.441Z,99964.39
2023-03-04T14:24:27.128Z,99965.23
2023-03-04T14:28:06.045Z,99961.95
2023-03-04T14:31:39.982Z,99972.48
2023-03-04T14:35:25.033Z,99969.88
2023-03-04T14:38:59.150Z,99969.27
2023-03-04T14:42:31.343Z,99973.77
2023-03-04T14:46:03.841Z,99970.42
2023-03-04T14:49:32.568Z,99974.14
2023-03-04T14:53:18.905Z,99980.19
2023-03-04T14:56:51.899Z,99985.46
2023-03-04T15:00:19.989Z,99988.94
2023-03-04T15:03:54.388Z,99993.55
2023-03-04T15:07:23.405Z,99996.49
2023-03-04T15:10:59.089Z,100000.96
2023-03-04T15:14:47.452Z,100005.83
2023-03-04T15:18:26.659Z,100008.94
2023-03-04T15:22:03.870Z,100015.69
2023-03-04T15:25:31.488Z,100016.94
2023-03-04T15:28:58.328Z,100021.63
2023-03-04T15:32:25.920Z,100013.48
2023-03-04T15:35:57.666Z,100028.66
2023-03-04T15:39:26.840Z,100034.50
2023-03-04T15:42:53.841Z,100040.25
2023-03-04T15:46:21.034Z,100047.61
2023-03-04T15:49:47.998Z,100059.27
2023-03-04T15:53:19.112Z,100068.48
2023-03-04T15:56:46.012Z,100071.30
2023-03-04T16:00:15.309Z,100076.58
2023-03-04T16:03:42.525Z,100082.89
2023-03-04T16:07:09.207Z,100083.41
2023-03-04T16:10:36.119Z,100088.79
2023-03-04T16:14:02.664Z,100094.33
2023-03-04T16:17:29.524Z,100093.99
2023-03-04T16:20:56.425Z,100103.29
2023-03-04T16:24:23.233Z,100108.50
2023-03-04T16:27:50.267Z,100111.30
2023-03-04T16:31:18.059Z,100115.82
2023-03-04T16:34:45.004Z,100131.30
2023-03-04T16:38:26.235Z,100142.92
2023-03-04T16:41:53.696Z,100142.55
2023-03-04T16:45:23.267Z,100150.41
2023-03-04T16:48:50.690Z,100155.23
2023-03-04T16:52:26.876Z,100162.73
2023-03-04T16:55:53.665Z,100172.20
2023-03-04T16:59:20.945Z,100175.13
2023-03-04T17:02:51.945Z,100180.95
2023-03-04T17:06:19.201Z,100186.31
2023-03-04T17:09:46.596Z,100187.87
2023-03-04T17:13:14.040Z,100199.36
2023-03-04T17:16:40.464Z,100202.69
2023-03-04T17:20:08.804Z,100206.21
2023-03-04T17:23:36.193Z,100209.33
2023-03-04T17:27:03.169Z,100212.94
2023-03-04T17:30:29.766Z,100211.58
2023-03-04T17:33:56.422Z,100215.12
2023-03-04T17:37:23.319Z,100213.48
2023-03-04T17:40:50.117Z,100216.25
2023-03-04T17:44:17.365Z,100221.86
2023-03-04T17:47:43.929Z,100227.44
2023-03-04T17:51:13.186Z,100226.36
2023-03-04T17:54:40.053Z,100228.53
2023-03-04T17:58:07.710Z,100227.23
2023-03-04T18:01:34.800Z,100229.58
2023-03-04T18:05:06.052Z,100230.72
2023-03-04T18:08:32.816Z,100227.73
2023-03-04T18:12:02.420Z,100236.38
2023-03-04T18:15:30.443Z,100232.91
2023-03-04T18:19:01.442Z,100235.40
2023-03-04T18:22:28.486Z,100236.86
2023-03-04T18:25:55.826Z,100230.11
2023-03-04T18:29:22.843Z,100232.77
2023-03-04T18:32:52.417Z,100233.33
2023-03-04T18:36:21.496Z,100233.55
2023-03-04T18:39:50.653Z,100236.01
2023-03-04T18:43:17.251Z,100234.70
2023-03-04T18:46:47.249Z,100236.46
2023-03-04T18:50:17.516Z,100237.90
2023-03-04T18:53:45.299Z,100241.21
2023-03-04T18:57:14.718Z,100242.84
2023-03-04T19:00:51.726Z,100244.96
2023-03-04T19:04:20.701Z,100247.42
2023-03-04T19:07:49.189Z,100247.13
2023-03-04T19:11:17.060Z,100245.30
2023-03-04T19:14:45.455Z,100245.19
2023-03-04T19:18:13.390Z,100251.38
2023-03-04T19:21:42.814Z,100250.23
2023-03-04T19:25:12.063Z,100256.06
2023-03-04T19:28:39.216Z,100258.48
2023-03-04T19:32:06.839Z,100253.21
2023-03-04T19:35:35.193Z,100253.60
2023-03-04T19:39:02.750Z,100252.77
2023-03-04T19:42:30.165Z,100251.10
2023-03-04T19:45:58.858Z,100252.16
2023-03-04T19:49:27.676Z,100251.88
2023-03-04T19:52:54.432Z,100248.83
2023-03-04T19:56:22.579Z,100247.85
2023-03-04T19:59:50.833Z,100250.11
2023-03-04T20:03:18.056Z,100246.58
2023-03-04T20:06:48.468Z,100245.90
2023-03-04T20:10:19.925Z,100251.05
2023-03-04T20:13:47.117Z,100253.46
2023-03-04T20:17:15.609Z,100250.08
2023-03-04T20:20:42.858Z,100251.13
2023-03-04T20:24:15.485Z,100248.41
2023-03-04T20:27:46.051Z,100249.63
2023-03-04T20:31:18.788Z,100251.20
2023-03-04T20:34:47.092Z,100249.15
2023-03-04T20:38:16.433Z,100250.21
2023-03-04T20:41:48.520Z,100247.68
2023-03-04T20:45:16.480Z,100244.95
2023-03-04T20:48:44.263Z,100243.80
2023-03-04T20:52:11.896Z,100244.15
2023-03-04T20:55:39.077Z,100242.30
2023-03-04T20:59:11.115Z,100245.20
2023-03-04T21:02:38.128Z,100243.70
2023-03-04T21:06:09.332Z,100240.81
2023-03-04T21:09:35.984Z,100237.60
2023-03-04T21:13:03.284Z,100238.13
2023-03-04T21:16:32.149Z,100233.05
2023-03-04T21:20:00.586Z,100234.94
2023-03-04T21:23:27.983Z,100228.48
2023-03-04T21:26:58.013Z,100226.12
2023-03-04T21:30:24.992Z,100223.07
2023-03-04T21:33:53.020Z,100217.13
2023-03-04T21:37:20.483Z,100218.67
2023-03-04T21:40:49.888Z,100217.66
2023-03-04T21:44:28.035Z,100214.45
2023-03-04T21:48:02.680Z,100209.54
2023-03-04T21:51:30.394Z,100204.27
2023-03-04T21:54:58.471Z,100205.14
2023-03-04T21:58:49.105Z,100202.95
2023-03-04T22:02:20.439Z,100200.42
2023-03-04T22:05:52.795Z,100196.70
2023-03-04T22:09:19.954Z,100198.24
2023-03-04T22:12:47.264Z,100195.02
2023-03-04T22:16:14.262Z,100190.79
2023-03-04T22:19:42.697Z,100187.71
2023-03-04T22:23:09.965Z,100183.79
2023-03-04T22:26:44.788Z,100182.97
2023-03-04T22:30:16.681Z,100182.46
2023-03-04T22:33:45.333Z,100180.94
2023-03-04T22:37:12.072Z,100179.08
2023-03-04T22:40:39.620Z,100178.42
2023-03-04T22:44:08.666Z,100177.39
2023-03-04T22:47:35.549Z,100179.60
2023-03-04T22:51:08.708Z,100175.02
2023-03-04T22:54:35.657Z,100174.69
2023-03-04T22:58:05.969Z,100173.17
2023-03-04T23:01:35.443Z,100173.85
2023-03-04T23:05:04.080Z,100167.55
2023-03-04T23:08:32.694Z,100160.23
2023-03-04T23:12:05.522Z,100161.42
2023-03-04T23:15:35.252Z,100154.98
2023-03-04T23:19:06.755Z,100154.30
2023-03-04T23:22:34.737Z,100151.43
2023-03-04T23:26:02.357Z,100151.23
2023-03-04T23:29:33.084Z,100144.63
2023-03-04T23:33:03.604Z,100144.98
2023-03-04T23:36:34.162Z,100145.15
2023-03-04T23:40:03.647Z,100141.58
2023-03-04T23:43:36.418Z,100132.57
2023-03-04T23:47:04.535Z,100132.56
2023-03-04T23:50:32.959Z,100131.38
2023-03-04T23:54:03.544Z,100126.98
2023-03-04T23:57:31.418Z,100128.34
